Time;durP1;ratioP1;P1;durP2;ratioP2;P2;SDS_P1;SDS_P2;PMS_P1;PMS_P2;Temp;Humidity;BMP_temperature;BMP_pressure;BME280_temperature;BME280_humidity;BME280_pressure;Samples;Min_cycle;Max_cycle;Signal;HPM_P1;HPM_P2
2022/05/29 00:00:47;;;;;;;9.10;2.70;;;;;;;8.97;100.00;101808.75;5036809;28;20146;-45
2022/05/29 00:03:13;;;;;;;9.95;2.92;;;;;;;8.96;100.00;101802.56;5037781;28;20040;-42
2022/05/29 00:05:40;;;;;;;10.90;2.75;;;;;;;8.90;100.00;101804.91;5034053;28;20028;-45
2022/05/29 00:08:09;;;;;;;7.25;2.58;;;;;;;8.87;100.00;101808.66;5036900;28;20032;-42
2022/05/29 00:10:37;;;;;;;10.60;3.08;;;;;;;8.89;100.00;101796.06;5036751;28;20032;-43
2022/05/29 00:13:03;;;;;;;13.40;2.92;;;;;;;8.89;100.00;101792.53;5036725;28;20039;-43
2022/05/29 00:15:29;;;;;;;12.10;2.92;;;;;;;8.84;100.00;101789.41;5035676;28;20032;-42
2022/05/29 00:17:54;;;;;;;8.07;2.95;;;;;;;8.79;100.00;101784.44;5036247;28;20020;-46
2022/05/29 00:20:19;;;;;;;12.35;2.90;;;;;;;8.78;100.00;101793.44;5035642;28;20028;-44
2022/05/29 00:22:44;;;;;;;8.88;3.10;;;;;;;8.77;100.00;101783.75;5037813;28;20069;-48
2022/05/29 00:25:10;;;;;;;7.18;2.60;;;;;;;8.77;100.00;101783.75;5036476;28;20102;-42
2022/05/29 00:27:36;;;;;;;6.18;2.67;;;;;;;8.75;100.00;101783.84;5035856;28;20032;-45
2022/05/29 00:30:03;;;;;;;10.18;2.55;;;;;;;8.71;100.00;101785.09;5032251;28;20033;-43
2022/05/29 00:32:28;;;;;;;11.73;3.10;;;;;;;8.68;100.00;101782.69;5034444;28;20056;-43
2022/05/29 00:34:53;;;;;;;11.82;2.60;;;;;;;8.68;100.00;101776.53;5036462;28;20017;-46
2022/05/29 00:37:19;;;;;;;10.95;2.70;;;;;;;8.72;100.00;101777.94;5035180;28;20098;-46
2022/05/29 00:39:45;;;;;;;11.85;2.65;;;;;;;8.80;100.00;101777.31;5037795;28;20033;-43
2022/05/29 00:42:13;;;;;;;9.93;2.67;;;;;;;8.84;100.00;101776.09;5035746;28;20033;-44
2022/05/29 00:44:38;;;;;;;9.13;2.80;;;;;;;8.87;100.00;101763.34;5035852;28;20535;-48
2022/05/29 00:47:14;;;;;;;8.73;2.95;;;;;;;8.85;100.00;101765.31;5035977;28;20205;-44
2022/05/29 00:49:42;;;;;;;13.77;2.92;;;;;;;8.81;100.00;101768.34;5036716;28;20032;-44
2022/05/29 00:52:36;;;;;;;10.15;2.75;;;;;;;8.77;100.00;101765.97;5036754;28;20114;-42
2022/05/29 00:55:06;;;;;;;11.57;2.78;;;;;;;8.76;100.00;101763.41;5016517;28;20340;-45
2022/05/29 00:57:37;;;;;;;12.55;2.78;;;;;;;8.78;100.00;101758.81;5034058;28;20122;-47
2022/05/29 01:00:11;;;;;;;8.77;2.50;;;;;;;8.82;100.00;101762.06;5035518;28;20032;-44
2022/05/29 01:02:37;;;;;;;7.75;2.67;;;;;;;8.83;100.00;101759.28;5035718;28;20827;-46
2022/05/29 01:05:06;;;;;;;15.35;2.70;;;;;;;8.85;100.00;101753.81;5035715;28;20114;-45
2022/05/29 01:07:33;;;;;;;13.00;2.95;;;;;;;8.82;100.00;101748.75;5035944;28;20056;-43
2022/05/29 01:09:59;;;;;;;8.15;2.60;;;;;;;8.83;100.00;101755.78;5036818;28;20025;-45
2022/05/29 01:12:37;;;;;;;13.55;2.42;;;;;;;8.81;100.00;101750.56;5034239;28;20060;-48
2022/05/29 01:15:12;;;;;;;10.93;2.40;;;;;;;8.75;100.00;101757.22;5035527;28;20036;-43
2022/05/29 01:17:37;;;;;;;14.73;2.58;;;;;;;8.73;100.00;101750.34;5036114;28;20040;-45
2022/05/29 01:20:27;;;;;;;13.00;2.80;;;;;;;8.73;100.00;101745.03;5036256;28;20243;-44
2022/05/29 01:23:07;;;;;;;9.65;2.90;;;;;;;8.72;100.00;101745.97;5036036;28;20314;-44
2022/05/29 01:25:53;;;;;;;14.98;2.80;;;;;;;8.66;100.00;101742.03;5034477;28;20025;-47
2022/05/29 01:29:00;;;;;;;9.43;2.58;;;;;;;8.66;100.00;101746.50;5033808;28;20032;-43
2022/05/29 01:31:32;;;;;;;13.38;2.92;;;;;;;8.62;100.00;101734.41;4991669;28;20116;-45
2022/05/29 01:34:12;;;;;;;10.38;2.90;;;;;;;8.56;100.00;101741.09;5016400;28;20641;-46
2022/05/29 01:37:03;;;;;;;10.02;2.95;;;;;;;8.51;100.00;101735.28;5015340;28;20036;-46
2022/05/29 01:39:49;;;;;;;8.77;2.97;;;;;;;8.45;100.00;101731.28;5015164;28;20691;-44
2022/05/29 01:42:33;;;;;;;12.75;2.85;;;;;;;8.40;100.00;101736.13;5015288;28;20365;-44
2022/05/29 01:45:04;;;;;;;12.80;3.03;;;;;;;8.38;100.00;101732.75;5015732;28;20033;-44
2022/05/29 01:47:44;;;;;;;12.00;3.13;;;;;;;8.31;100.00;101718.25;5014815;28;20372;-43
2022/05/29 01:50:37;;;;;;;10.02;3.08;;;;;;;8.32;100.00;101723.44;5015961;28;20389;-44
2022/05/29 01:53:20;;;;;;;14.32;2.88;;;;;;;8.37;100.00;101712.44;5009944;28;20521;-45
2022/05/29 01:55:51;;;;;;;12.20;2.90;;;;;;;8.40;100.00;101713.03;5033644;28;20033;-44
2022/05/29 01:58:35;;;;;;;11.20;3.28;;;;;;;8.42;100.00;101715.56;5034272;28;20484;-45
2022/05/29 02:01:04;;;;;;;10.75;3.30;;;;;;;8.39;100.00;101711.31;5032185;28;20040;-48
2022/05/29 02:03:34;;;;;;;17.40;3.40;;;;;;;8.38;100.00;101714.13;5035255;28;20025;-48
2022/05/29 02:06:08;;;;;;;12.02;3.10;;;;;;;8.37;100.00;101713.28;5035642;28;20061;-48
2022/05/29 02:08:45;;;;;;;12.63;3.22;;;;;;;8.40;100.00;101707.72;5035125;28;20147;-46
2022/05/29 02:11:20;;;;;;;14.45;3.28;;;;;;;8.42;100.00;101710.25;5032971;28;20037;-44
2022/05/29 02:14:08;;;;;;;18.98;3.30;;;;;;;8.46;100.00;101710.88;5035554;28;20365;-43
2022/05/29 02:16:41;;;;;;;15.77;3.38;;;;;;;8.45;100.00;101704.69;5033674;28;20078;-44
2022/05/29 02:19:15;;;;;;;12.10;3.75;;;;;;;8.41;100.00;101701.41;5035212;28;20074;-46
2022/05/29 02:21:46;;;;;;;11.30;3.20;;;;;;;8.45;100.00;101696.69;5035152;28;20057;-44
2022/05/29 02:24:17;;;;;;;8.05;2.90;;;;;;;8.43;100.00;101697.81;5034971;28;20033;-46
2022/05/29 02:26:59;;;;;;;13.10;3.50;;;;;;;8.43;100.00;101697.81;5033897;28;20075;-43
2022/05/29 02:29:24;;;;;;;14.75;3.58;;;;;;;8.44;100.00;101696.84;5033113;28;20132;-45
2022/05/29 02:32:02;;;;;;;11.00;3.17;;;;;;;8.50;100.00;101694.53;5035115;28;20135;-46
2022/05/29 02:34:46;;;;;;;13.77;3.50;;;;;;;8.54;100.00;101690.63;5034525;28;20041;-45
2022/05/29 02:37:44;;;;;;;13.88;3.50;;;;;;;8.56;100.00;101685.19;5035277;28;20613;-44
2022/05/29 02:40:31;;;;;;;24.42;3.67;;;;;;;8.58;100.00;101685.88;5034555;28;20132;-43
2022/05/29 02:43:04;;;;;;;15.30;3.60;;;;;;;8.54;100.00;101685.31;5033888;28;20036;-46
2022/05/29 02:45:39;;;;;;;15.65;3.53;;;;;;;8.52;100.00;101681.06;5033531;28;20391;-44
2022/05/29 02:48:20;;;;;;;15.20;3.65;;;;;;;8.51;100.00;101666.91;5034393;28;20056;-44
2022/05/29 02:51:07;;;;;;;9.60;3.73;;;;;;;8.54;100.00;101674.66;5035094;28;20725;-45
2022/05/29 02:53:33;;;;;;;16.70;3.83;;;;;;;8.56;100.00;101669.19;5033860;28;20486;-46
2022/05/29 02:56:03;;;;;;;16.25;4.00;;;;;;;8.56;100.00;101667.38;5032472;28;20399;-48
2022/05/29 02:58:32;;;;;;;10.23;3.25;;;;;;;8.56;100.00;101672.69;5032854;28;20017;-45
2022/05/29 03:01:23;;;;;;;12.45;3.60;;;;;;;8.61;100.00;101668.81;5033609;28;20284;-47
2022/05/29 03:04:15;;;;;;;13.13;3.30;;;;;;;8.67;100.00;101668.28;5033162;28;20044;-46
2022/05/29 03:07:01;;;;;;;13.55;3.28;;;;;;;8.71;100.00;101667.09;5034120;28;20267;-45
2022/05/29 03:09:35;;;;;;;13.82;3.60;;;;;;;8.70;100.00;101668.03;5030639;28;20028;-45
2022/05/29 03:12:05;;;;;;;9.95;2.88;;;;;;;8.69;100.00;101667.22;5033640;28;20124;-45
2022/05/29 03:14:51;;;;;;;12.85;3.60;;;;;;;8.69;100.00;101664.53;5033431;28;20027;-42
2022/05/29 03:17:49;;;;;;;11.20;3.00;;;;;;;8.70;100.00;101668.88;5033024;28;20345;-43
2022/05/29 03:20:53;;;;;;;13.55;3.28;;;;;;;8.63;100.00;101662.38;5034451;28;20025;-49
2022/05/29 03:23:31;;;;;;;8.05;3.00;;;;;;;8.61;100.00;101669.66;4974978;28;20327;-45
2022/05/29 03:26:03;;;;;;;11.48;3.38;;;;;;;8.57;100.00;101657.56;5029848;28;20033;-42
2022/05/29 03:28:42;;;;;;;15.13;3.35;;;;;;;8.54;100.00;101665.81;5036338;28;20120;-42
2022/05/29 03:31:14;;;;;;;10.80;3.25;;;;;;;8.51;100.00;101664.25;5017277;28;20071;-46
2022/05/29 03:33:40;;;;;;;11.95;3.03;;;;;;;8.49;100.00;101663.53;5018470;28;20063;-45
2022/05/29 03:36:11;;;;;;;15.73;3.72;;;;;;;8.44;100.00;101657.75;5017012;28;20540;-43
2022/05/29 03:38:37;;;;;;;9.02;3.40;;;;;;;8.48;100.00;101658.34;5017392;28;20099;-44
2022/05/29 03:41:43;;;;;;;10.75;3.30;;;;;;;8.52;100.00;101660.63;5016103;28;20349;-46
2022/05/29 03:44:10;;;;;;;13.30;3.60;;;;;;;8.52;100.00;101663.28;5016492;28;20048;-45
2022/05/29 03:46:35;;;;;;;11.00;3.40;;;;;;;8.59;100.00;101658.31;5016738;28;20026;-45
2022/05/29 03:49:01;;;;;;;16.40;3.75;;;;;;;8.63;100.00;101653.56;5018289;28;20086;-47
2022/05/29 03:51:26;;;;;;;15.82;3.55;;;;;;;8.60;100.00;101651.97;5017025;28;20095;-43
2022/05/29 03:53:51;;;;;;;8.63;3.03;;;;;;;8.64;100.00;101653.44;5018225;28;20162;-45
2022/05/29 03:56:16;;;;;;;13.52;3.53;;;;;;;8.71;100.00;101645.78;5016033;28;20032;-46
2022/05/29 03:58:42;;;;;;;14.25;2.80;;;;;;;8.75;100.00;101648.03;5016993;28;20092;-44
2022/05/29 04:01:07;;;;;;;15.73;3.20;;;;;;;8.82;100.00;101640.38;5017005;28;20048;-44
2022/05/29 04:03:34;;;;;;;14.38;3.42;;;;;;;8.86;100.00;101644.47;5017712;28;20029;-42
2022/05/29 04:05:59;;;;;;;7.97;3.13;;;;;;;8.87;100.00;101637.31;5018383;28;20476;-44
2022/05/29 04:13:53;;;;;;;12.70;3.20;;;;;;;8.98;100.00;101636.41;5018068;28;20056;-45
2022/05/29 04:16:18;;;;;;;10.45;3.28;;;;;;;8.99;100.00;101638.94;5016466;28;20515;-42
2022/05/29 04:18:43;;;;;;;13.52;3.35;;;;;;;9.00;100.00;101643.28;5016733;28;20408;-47
2022/05/29 04:21:09;;;;;;;15.35;3.20;;;;;;;9.04;100.00;101649.19;5016883;28;20044;-47
2022/05/29 04:23:34;;;;;;;8.60;2.97;;;;;;;9.00;100.00;101650.47;5017438;28;20694;-45
2022/05/29 04:26:00;;;;;;;11.32;3.03;;;;;;;8.96;100.00;101657.84;5017005;28;20112;-48
2022/05/29 04:28:26;;;;;;;12.68;2.92;;;;;;;8.95;100.00;101651.69;5016180;28;20504;-46
2022/05/29 04:30:51;;;;;;;16.02;3.50;;;;;;;9.00;100.00;101661.13;5016569;28;20021;-47
2022/05/29 04:33:17;;;;;;;17.73;2.90;;;;;;;9.04;100.00;101655.38;5015637;28;20033;-43
2022/05/29 04:35:47;;;;;;;12.88;3.30;;;;;;;9.08;100.00;101659.47;5017247;28;20212;-43
2022/05/29 04:38:13;;;;;;;9.90;3.20;;;;;;;9.14;100.00;101658.09;5017195;28;20423;-45
2022/05/29 04:40:41;;;;;;;9.23;3.00;;;;;;;9.20;100.00;101654.06;5015941;28;20427;-46
2022/05/29 04:43:06;;;;;;;10.45;3.20;;;;;;;9.18;100.00;101643.53;5016539;28;20053;-48
2022/05/29 04:45:32;;;;;;;15.52;3.45;;;;;;;9.19;100.00;101642.56;5015435;28;20500;-47
2022/05/29 04:47:57;;;;;;;13.38;3.78;;;;;;;9.20;100.00;101646.91;5016923;28;20029;-46
2022/05/29 04:50:23;;;;;;;14.90;4.10;;;;;;;9.25;100.00;101642.03;5015479;28;20057;-49
2022/05/29 04:52:50;;;;;;;12.00;3.47;;;;;;;9.24;100.00;101652.81;5016615;28;20451;-47
2022/05/29 04:55:16;;;;;;;10.45;3.10;;;;;;;9.23;100.00;101637.81;5016140;28;20033;-43
2022/05/29 04:57:41;;;;;;;18.20;3.35;;;;;;;9.26;100.00;101641.03;5016399;28;20367;-45
2022/05/29 05:00:07;;;;;;;13.68;3.40;;;;;;;9.23;100.00;101638.66;5047283;28;20519;-44
2022/05/29 05:02:33;;;;;;;10.13;3.72;;;;;;;9.23;100.00;101636.00;5016862;28;20033;-45
2022/05/29 05:04:58;;;;;;;13.38;3.83;;;;;;;9.25;100.00;101639.38;5016221;28;20313;-45
2022/05/29 05:07:23;;;;;;;13.88;4.18;;;;;;;9.27;100.00;101628.56;5015158;28;20059;-47
2022/05/29 05:09:49;;;;;;;9.57;3.50;;;;;;;9.31;100.00;101630.00;5016762;28;20133;-49
2022/05/29 05:12:14;;;;;;;12.13;3.40;;;;;;;9.42;100.00;101629.03;5015272;28;20033;-46
2022/05/29 05:14:40;;;;;;;15.50;3.40;;;;;;;9.45;100.00;101628.78;5015815;28;20033;-44
2022/05/29 05:17:05;;;;;;;11.57;3.78;;;;;;;9.53;100.00;101629.78;5015992;28;20033;-44
2022/05/29 05:19:31;;;;;;;10.35;3.80;;;;;;;9.59;100.00;101630.22;5015699;28;20287;-46
2022/05/29 05:21:59;;;;;;;9.75;3.60;;;;;;;9.57;100.00;101624.19;5013848;28;20026;-46
2022/05/29 05:24:24;;;;;;;14.40;4.13;;;;;;;9.55;100.00;101620.81;5016042;28;20606;-44
2022/05/29 05:26:50;;;;;;;16.58;3.95;;;;;;;9.50;100.00;101627.41;5014992;28;20018;-45
2022/05/29 05:29:15;;;;;;;14.02;4.13;;;;;;;9.50;100.00;101624.75;5015493;28;20480;-44
2022/05/29 05:31:40;;;;;;;15.35;4.20;;;;;;;9.51;100.00;101617.59;5014188;28;20035;-46
2022/05/29 05:34:06;;;;;;;12.95;4.03;;;;;;;9.52;100.00;101629.91;5016267;28;20475;-44
2022/05/29 05:36:31;;;;;;;13.57;4.50;;;;;;;9.44;100.00;101611.94;5015136;28;20041;-44
2022/05/29 05:38:57;;;;;;;8.93;3.58;;;;;;;9.51;100.00;101618.41;5014185;28;20598;-45
2022/05/29 05:41:22;;;;;;;13.32;3.72;;;;;;;9.61;100.00;101617.63;5014221;28;20029;-48
2022/05/29 05:43:47;;;;;;;13.52;3.78;;;;;;;9.72;100.00;101617.50;5015666;28;20075;-45
2022/05/29 05:46:14;;;;;;;13.88;3.72;;;;;;;9.74;100.00;101620.88;5014895;28;20088;-44
2022/05/29 05:48:39;;;;;;;13.50;3.63;;;;;;;9.74;100.00;101604.03;5015510;28;20048;-44
2022/05/29 05:51:06;;;;;;;11.88;3.72;;;;;;;9.79;100.00;101617.78;5015686;28;20223;-43
2022/05/29 05:53:32;;;;;;;9.88;3.80;;;;;;;9.82;100.00;101613.03;5012728;28;20548;-43
2022/05/29 05:55:58;;;;;;;12.65;3.75;;;;;;;9.84;100.00;101621.75;5033769;28;20035;-46
2022/05/29 05:58:23;;;;;;;13.38;3.88;;;;;;;9.83;100.00;101612.06;5034669;28;20025;-44
2022/05/29 06:00:49;;;;;;;12.32;3.75;;;;;;;9.93;100.00;101611.22;5035006;28;20191;-43
2022/05/29 06:03:16;;;;;;;15.45;4.10;;;;;;;10.03;100.00;101620.94;5035937;28;20025;-46
2022/05/29 06:05:41;;;;;;;12.73;4.20;;;;;;;10.14;100.00;101616.47;5035552;28;20082;-45
2022/05/29 06:08:07;;;;;;;11.63;3.53;;;;;;;10.19;100.00;101614.22;5032594;28;20021;-48
2022/05/29 06:10:33;;;;;;;12.65;4.00;;;;;;;10.30;100.00;101621.22;5033995;28;20352;-43
2022/05/29 06:13:02;;;;;;;7.93;3.85;;;;;;;10.35;100.00;101611.88;5034788;28;20094;-44
2022/05/29 06:15:28;;;;;;;12.10;3.72;;;;;;;10.38;100.00;101611.56;5033245;28;20098;-45
2022/05/29 06:17:53;;;;;;;7.85;3.50;;;;;;;10.36;100.00;101612.69;5033203;28;20469;-46
2022/05/29 06:20:19;;;;;;;12.90;3.90;;;;;;;10.42;100.00;101612.13;5033464;28;20029;-43
2022/05/29 06:22:44;;;;;;;12.95;3.30;;;;;;;10.49;100.00;101609.72;5034467;28;20565;-45
2022/05/29 06:25:10;;;;;;;12.23;4.05;;;;;;;10.51;100.00;101610.47;5033130;28;20264;-45
2022/05/29 06:27:37;;;;;;;10.00;3.63;;;;;;;10.60;100.00;101615.75;5033746;28;20029;-44
2022/05/29 06:30:05;;;;;;;11.02;3.63;;;;;;;10.71;100.00;101612.13;5034490;28;20032;-48
2022/05/29 06:32:30;;;;;;;14.13;3.78;;;;;;;10.73;100.00;101622.66;5030544;28;20649;-48
2022/05/29 06:34:56;;;;;;;12.80;4.28;;;;;;;10.79;100.00;101611.38;5015946;28;20056;-45
2022/05/29 06:37:21;;;;;;;9.40;3.90;;;;;;;10.83;100.00;101620.81;5012826;28;20356;-45
2022/05/29 06:39:47;;;;;;;11.35;3.55;;;;;;;10.79;100.00;101611.38;5015226;28;20025;-46
2022/05/29 06:42:13;;;;;;;14.05;3.92;;;;;;;10.80;100.00;101611.25;5014028;28;20030;-45
2022/05/29 06:44:40;;;;;;;12.57;3.80;;;;;;;10.85;100.00;101612.66;5013638;28;20095;-45
2022/05/29 06:47:07;;;;;;;10.90;3.80;;;;;;;10.88;100.00;101617.69;5015194;28;20116;-46
2022/05/29 06:49:33;;;;;;;9.48;3.45;;;;;;;10.95;100.00;101616.16;5014784;28;20055;-47
2022/05/29 06:51:58;;;;;;;14.43;3.67;;;;;;;11.00;100.00;101614.72;5014224;28;20033;-45
2022/05/29 06:54:24;;;;;;;10.35;3.50;;;;;;;11.02;100.00;101618.09;5020712;28;20234;-45
2022/05/29 06:56:49;;;;;;;9.55;3.20;;;;;;;11.00;100.00;101614.72;5034863;28;20033;-45
2022/05/29 06:59:14;;;;;;;14.25;3.60;;;;;;;11.09;100.00;101620.19;5038449;28;20379;-44
2022/05/29 07:07:13;;;;;;;13.23;3.60;;;;;;;11.30;100.00;101618.16;5038532;28;20045;-44
2022/05/29 07:09:39;;;;;;;15.50;3.30;;;;;;;11.35;100.00;101607.00;5038439;28;20108;-45
2022/05/29 07:12:27;;;;;;;15.48;3.30;;;;;;;11.42;100.00;101609.91;5035751;28;20124;-45
2022/05/29 07:15:03;;;;;;;11.88;3.40;;;;;;;11.49;100.00;101611.88;5037795;28;20036;-47
2022/05/29 07:17:29;;;;;;;12.57;3.33;;;;;;;11.52;100.00;101608.91;5035790;28;20407;-49
2022/05/29 07:19:55;;;;;;;13.50;3.28;;;;;;;11.56;100.00;101612.13;5036700;28;20128;-43
2022/05/29 07:22:20;;;;;;;13.68;3.53;;;;;;;11.65;100.00;101618.41;5029701;28;20026;-47
2022/05/29 07:24:45;;;;;;;9.35;3.10;;;;;;;11.75;100.00;101608.47;5019034;28;20056;-45
2022/05/29 07:27:11;;;;;;;11.93;2.85;;;;;;;11.89;100.00;101607.97;5017571;28;20483;-45
2022/05/29 07:29:37;;;;;;;13.25;2.67;;;;;;;11.91;100.00;101606.03;5016875;28;20099;-45
2022/05/29 07:32:04;;;;;;;8.00;2.60;;;;;;;11.86;100.00;101608.28;5018437;28;20030;-48
2022/05/29 07:34:30;;;;;;;10.48;3.08;;;;;;;11.86;100.00;101602.94;5017166;28;20492;-45
2022/05/29 07:37:07;;;;;;;11.55;2.90;;;;;;;11.89;100.00;101605.28;5017567;28;20036;-44
2022/05/29 07:39:36;;;;;;;11.40;2.97;;;;;;;12.01;100.00;101597.06;5017821;28;20380;-48
2022/05/29 07:44:45;;;;;;;12.82;2.65;;;;;;;12.27;100.00;101603.38;5017802;28;20107;-48
2022/05/29 07:47:10;;;;;;;17.45;2.88;;;;;;;12.45;100.00;101597.13;5016983;28;20025;-46
2022/05/29 07:49:38;;;;;;;11.32;2.55;;;;;;;12.57;100.00;101597.72;5017672;28;20026;-45
2022/05/29 07:52:04;;;;;;;11.75;3.03;;;;;;;12.67;100.00;101598.47;5018262;28;20197;-45
2022/05/29 07:54:29;;;;;;;9.65;2.38;;;;;;;13.01;100.00;101595.00;5016961;28;20037;-43
2022/05/29 07:56:55;;;;;;;9.32;2.38;;;;;;;13.39;100.00;101598.25;5016523;28;20199;-47
2022/05/29 07:59:21;;;;;;;11.52;2.50;;;;;;;13.71;100.00;101592.16;5016484;28;20033;-47
2022/05/29 08:01:47;;;;;;;10.73;2.35;;;;;;;13.93;100.00;101590.72;5016278;28;20095;-43
2022/05/29 08:04:14;;;;;;;11.57;2.42;;;;;;;14.03;96.24;101587.03;5018297;28;20111;-43
2022/05/29 08:06:39;;;;;;;11.98;2.60;;;;;;;13.90;95.55;101584.81;5016252;28;20021;-45
2022/05/29 08:09:05;;;;;;;11.43;2.17;;;;;;;13.81;97.73;101575.91;5017279;28;20433;-47
2022/05/29 08:11:30;;;;;;;5.95;2.22;;;;;;;13.66;100.00;101585.59;5014075;28;20452;-44
2022/05/29 08:13:55;;;;;;;11.07;2.10;;;;;;;13.51;97.23;101585.38;5017063;28;20135;-45
2022/05/29 08:16:21;;;;;;;8.88;2.38;;;;;;;13.40;98.63;101586.53;5014921;28;20068;-43
2022/05/29 08:18:47;;;;;;;15.13;2.60;;;;;;;13.27;96.78;101584.25;5015508;28;20033;-43
2022/05/29 08:21:12;;;;;;;15.73;2.97;;;;;;;13.18;97.21;101585.22;5017354;28;20032;-48
2022/05/29 08:23:38;;;;;;;10.50;2.25;;;;;;;13.22;97.70;101581.19;5015202;28;20029;-46
2022/05/29 08:31:31;;;;;;;15.32;2.55;;;;;;;13.31;99.87;101582.94;5015671;28;20040;-44
2022/05/29 08:33:57;;;;;;;13.50;2.60;;;;;;;13.36;99.79;101577.97;5017199;28;20021;-46
2022/05/29 08:36:25;;;;;;;10.43;2.45;;;;;;;13.29;96.16;101576.03;5016600;28;20042;-46
2022/05/29 08:38:52;;;;;;;13.30;2.50;;;;;;;13.30;99.41;101572.38;5016752;28;20033;-46
2022/05/29 08:41:37;;;;;;;9.40;2.35;;;;;;;13.33;96.65;101570.22;5015675;28;20029;-43
2022/05/29 08:44:23;;;;;;;10.95;2.05;;;;;;;13.63;92.80;101568.00;5015388;28;20025;-47
2022/05/29 08:46:53;;;;;;;14.10;2.60;;;;;;;13.97;93.07;101565.22;5015906;28;20582;-44
2022/05/29 08:49:22;;;;;;;8.40;2.30;;;;;;;14.30;93.42;101561.69;5016526;28;20021;-45
2022/05/29 08:52:05;;;;;;;8.18;2.28;;;;;;;14.68;87.54;101557.50;5017272;28;20037;-45
2022/05/29 08:54:54;;;;;;;7.32;1.92;;;;;;;15.04;89.53;101572.38;5022882;28;20045;-48
2022/05/29 08:57:54;;;;;;;9.82;2.33;;;;;;;14.97;84.77;101564.16;5035576;28;20029;-44
2022/05/29 09:00:38;;;;;;;11.18;2.15;;;;;;;14.49;84.49;101560.50;5033712;28;20115;-44
2022/05/29 09:03:16;;;;;;;7.78;1.88;;;;;;;14.02;85.47;101562.03;5036480;28;20029;-46
2022/05/29 09:05:47;;;;;;;11.27;2.00;;;;;;;13.77;87.44;101570.03;5037131;28;20041;-44
2022/05/29 09:08:19;;;;;;;8.70;1.90;;;;;;;13.82;89.90;101560.66;5035884;28;20384;-46
2022/05/29 09:10:49;;;;;;;8.13;1.55;;;;;;;13.92;89.41;101564.03;5035707;28;20033;-46
2022/05/29 09:13:42;;;;;;;8.80;2.00;;;;;;;14.09;87.43;101557.66;5036215;28;20029;-46
2022/05/29 09:16:18;;;;;;;7.85;1.25;;;;;;;14.51;85.09;101551.28;5031888;28;20041;-45
2022/05/29 09:18:50;;;;;;;5.30;1.40;;;;;;;14.86;78.84;101543.84;5028727;28;20364;-46
2022/05/29 09:21:18;;;;;;;3.88;1.20;;;;;;;15.34;78.87;101537.63;5015564;28;20120;-43
2022/05/29 09:23:52;;;;;;;6.85;1.30;;;;;;;15.69;77.53;101533.56;5015501;28;20032;-45
2022/05/29 09:26:19;;;;;;;6.15;1.17;;;;;;;16.11;76.82;101529.59;5020022;28;20041;-44
2022/05/29 09:28:45;;;;;;;6.60;1.13;;;;;;;16.11;75.86;101526.91;5034589;28;20116;-43
2022/05/29 09:31:16;;;;;;;10.85;1.58;;;;;;;15.98;75.54;101532.03;5035278;28;20107;-46
2022/05/29 09:33:41;;;;;;;10.15;1.20;;;;;;;15.75;70.61;101524.81;5026143;28;20112;-47
2022/05/29 09:36:40;;;;;;;6.85;1.27;;;;;;;15.71;73.61;101523.44;5014681;28;20395;-46
2022/05/29 09:39:12;;;;;;;7.03;1.70;;;;;;;15.49;71.69;101522.41;5016366;28;20140;-48
2022/05/29 09:41:46;;;;;;;5.47;1.45;;;;;;;15.29;74.80;101522.84;5014251;28;20621;-47
2022/05/29 09:44:15;;;;;;;5.78;1.08;;;;;;;15.31;73.00;101517.28;5013609;28;20553;-48
2022/05/29 09:46:42;;;;;;;4.07;0.93;;;;;;;15.67;74.59;101520.28;5015005;28;20905;-47
2022/05/29 09:49:41;;;;;;;5.00;1.20;;;;;;;16.45;67.17;101522.06;5015948;28;20104;-43
2022/05/29 09:52:12;;;;;;;5.93;1.35;;;;;;;16.67;71.90;101523.84;5015245;28;20029;-49
2022/05/29 09:55:08;;;;;;;4.00;1.13;;;;;;;16.69;68.70;101529.88;5015369;28;20059;-46
2022/05/29 09:57:51;;;;;;;6.07;1.15;;;;;;;16.70;70.47;101530.72;5015034;28;20185;-50
2022/05/29 10:00:30;;;;;;;2.45;0.80;;;;;;;16.08;73.44;101510.25;5026011;28;20436;-47
2022/05/29 10:02:56;;;;;;;4.07;1.17;;;;;;;15.99;76.28;101518.41;5040765;28;20448;-46
2022/05/29 10:05:25;;;;;;;3.58;0.90;;;;;;;15.97;73.48;101519.59;5026187;28;20033;-44
2022/05/29 10:07:53;;;;;;;4.10;0.60;;;;;;;15.73;74.69;101525.97;5028485;28;20013;-48
2022/05/29 10:10:24;;;;;;;2.83;0.63;;;;;;;15.58;76.69;101528.56;5022905;28;20499;-46
2022/05/29 10:12:50;;;;;;;2.67;0.68;;;;;;;15.52;76.37;101527.44;5042118;28;20025;-47
2022/05/29 10:15:25;;;;;;;1.63;0.50;;;;;;;15.39;76.81;101524.47;5042914;28;20031;-44
2022/05/29 10:17:58;;;;;;;3.80;0.68;;;;;;;15.29;76.95;101514.78;5034289;28;20029;-48
2022/05/29 10:20:31;;;;;;;3.58;0.90;;;;;;;15.25;80.00;101515.28;5036041;28;20067;-44
2022/05/29 10:22:59;;;;;;;2.60;0.60;;;;;;;15.23;78.45;101522.72;5037992;28;20032;-44
2022/05/29 10:25:27;;;;;;;1.33;0.93;;;;;;;15.26;79.18;101520.50;5028974;28;20033;-43
2022/05/29 10:27:56;;;;;;;4.63;1.08;;;;;;;15.33;76.71;101517.94;5026442;28;20034;-47
2022/05/29 10:30:28;;;;;;;3.15;0.70;;;;;;;15.38;78.15;101520.94;5028326;28;20033;-44
2022/05/29 10:33:19;;;;;;;3.83;0.80;;;;;;;15.66;78.71;101523.13;5034923;28;20483;-45
2022/05/29 10:35:46;;;;;;;4.15;0.90;;;;;;;15.68;76.28;101515.72;5034889;28;20053;-45
2022/05/29 10:38:17;;;;;;;3.25;1.00;;;;;;;15.76;77.55;101515.69;5034997;28;20112;-45
2022/05/29 10:40:43;;;;;;;;;;;;;;;16.09;78.33;101530.78;5035617;28;20029;-47
2022/05/29 10:43:09;;;;;;;2.40;0.75;;;;;;;16.13;77.82;101521.31;5034769;28;19959;-48
2022/05/29 10:45:42;;;;;;;5.88;1.23;;;;;;;15.87;81.92;101522.53;5032051;28;20053;-43
2022/05/29 10:48:22;;;;;;;6.78;1.02;;;;;;;15.37;84.59;101534.59;5033457;28;20040;-44
2022/05/29 10:51:17;;;;;;;5.50;1.27;;;;;;;14.72;90.51;101531.94;5035549;28;20040;-44
2022/05/29 10:53:54;;;;;;;7.38;1.10;;;;;;;14.11;92.67;101519.91;5034442;28;20053;-48
2022/05/29 10:56:48;;;;;;;6.35;1.25;;;;;;;13.83;97.34;101520.19;5012163;28;20044;-49
2022/05/29 10:59:51;;;;;;;4.55;1.02;;;;;;;13.61;98.53;101522.53;4999859;28;20372;-44
2022/05/29 11:05:30;;;;;;;3.35;1.00;;;;;;;13.35;100.00;101527.97;5014741;28;20037;-46
2022/05/29 11:08:19;;;;;;;4.25;1.77;;;;;;;13.50;100.00;101524.69;5014877;28;20484;-46
2022/05/29 11:11:15;;;;;;;6.65;1.67;;;;;;;13.70;100.00;101520.69;5014046;28;20116;-42
2022/05/29 11:14:02;;;;;;;6.90;2.10;;;;;;;14.02;100.00;101528.94;5022262;28;20052;-44
2022/05/29 11:16:35;;;;;;;6.70;2.00;;;;;;;14.54;100.00;101524.06;5032005;28;20033;-47
2022/05/29 11:19:17;;;;;;;4.32;1.48;;;;;;;14.85;95.71;101519.81;5034547;28;20143;-44
2022/05/29 11:21:46;;;;;;;7.65;1.50;;;;;;;14.61;97.81;101521.53;5032929;28;20490;-44
2022/05/29 11:24:50;;;;;;;5.55;1.42;;;;;;;14.44;100.00;101534.13;5025932;28;20428;-47
2022/05/29 11:27:46;;;;;;;4.05;1.10;;;;;;;13.87;100.00;101532.31;5013890;28;20416;-45
2022/05/29 11:30:35;;;;;;;4.35;0.70;;;;;;;13.59;100.00;101532.59;5020379;28;20163;-44
2022/05/29 11:33:29;;;;;;;1.95;0.73;;;;;;;13.40;100.00;101519.44;5034422;28;20040;-47
2022/05/29 11:36:03;;;;;;;2.58;0.82;;;;;;;13.36;100.00;101518.09;5034892;28;20036;-45
2022/05/29 11:39:06;;;;;;;1.63;0.47;;;;;;;13.57;100.00;101523.00;5033118;28;20029;-43
2022/05/29 11:41:44;;;;;;;3.10;0.60;;;;;;;13.90;100.00;101517.69;5034580;28;20032;-47
2022/05/29 11:44:28;;;;;;;3.30;0.77;;;;;;;14.22;100.00;101516.03;5031074;28;20029;-47
2022/05/29 11:52:57;;;;;;;3.83;0.80;;;;;;;15.36;97.08;101517.59;5017648;28;20523;-44
2022/05/29 11:55:29;;;;;;;1.27;0.60;;;;;;;15.52;97.80;101511.28;5059082;28;20033;-46
2022/05/29 11:58:02;;;;;;;5.07;1.55;;;;;;;15.29;95.18;101506.69;5035101;28;20031;-46
2022/05/29 12:00:34;;;;;;;5.03;0.93;;;;;;;14.87;95.09;101505.19;5036469;28;20214;-46
2022/05/29 12:03:20;;;;;;;3.53;1.20;;;;;;;14.43;99.30;101504.78;5038030;28;20523;-48
2022/05/29 12:05:48;;;;;;;2.72;0.93;;;;;;;13.98;100.00;101502.44;5038348;28;20036;-46
2022/05/29 12:08:19;;;;;;;4.40;1.10;;;;;;;13.56;100.00;101510.59;5037110;28;20020;-45
2022/05/29 12:11:07;;;;;;;6.63;0.88;;;;;;;13.13;100.00;101507.91;5036573;28;20137;-44